Oconomowoc, WI (53066)

10:51 PM CST on January 18, 2017 (GMT -0600)
Genesee Lake Farms | | Change Station

Elev 884 ft 43.04 °N, 88.49 °W | Updated 14 seconds ago

Overcast
Overcast
31.7 °F
Feels Like 32 °F
N
3.0
Wind Variable Wind from SSW
Gusts 5.0 mph

Today
High -- | Low -- °F
--% Chance of Precip.
Yesterday
High -- | Low -- °F
Precip. -- in
Pressure 29.99 in
Visibility 5.0 miles
Clouds Overcast 700 ft
Windchill 32 °F
Dew Point 12 °F
Humidity 44%
Rainfall 0.00 in
Snow Depth Not available.
7:20 AM 4:48 PM
Waning Gibbous, 57% visible
METAR KRYV 190415Z AUTO 21009KT 5SM BR OVC007 00/00 A2999 RMK AO2 T00010001
Pressure 29.99 in
Visibility 5.0 miles
Clouds Overcast 700 ft
Windchill 32 °F
Dew Point 12 °F
Humidity 44%
Rainfall 0.00 in
Snow Depth Not available.
7:20 AM 4:48 PM
Waning Gibbous, 57% visible
METAR KRYV 190415Z AUTO 21009KT 5SM BR OVC007 00/00 A2999 RMK AO2 T00010001

Get Your Daily Forecast Email!

Thanks for signing up!

Be on the lookout for a verification email in your inbox.

You'll start receiving the daily forecast at 8 AM.

×

10-Day Weather Forecast

Almanac

Astronomy

Jan. 18, 2017 Rise Set
Actual Time
Civil Twilight
Nautical Twilight
Astronomical Twilight
Moon
Length of Visible Light
Length of Day
Tomorrow will be .
, % of the Moon is Illuminated

Today's Extremes

State Highs State Lows

Community

WunderPhotos

Upload Photos

1,962,540 photos uploaded!

WunderBlog® & News

Nearby

Air Quality

  Air Quality AQ Index Pollutant
Not available.

Snow Depth

Station Depth Elevation

Earthquake Activity

City Distance Mag. Time & Date
Minimum magnitude displayed is 2.5.

Coastal Water Temperatures

Place Temperature

Stations

Nearby Weather Stations

Station Location Temp. Windchill Dew Point Humidity Wind Precip. Elev Updated Type
                   

Watches & Warnings

There are currently no watches in effect.